< < Back
Terminal Aerodrome Forecast


Current Version              Previous Versions:   1  2  3  4  5  6  7  8  9  

Terminal Aerodrome Forecast

759
FTUS42 KGSP 301739
TAFAND
TAF
KAND 301739Z 3018/3118 01006KT P6SM FEW050
     FM302100 33006KT P6SM VCTS BKN045CB
     FM310000 04004KT P6SM SCT250
      TEMPO 3109/3112 4SM BR
     FM311200 06004KT P6SM SCT045=

Latest METAR

566
SAUS70 KWBC 310700 RRA
MTRAND
METAR KAND 310656Z AUTO 31003KT 10SM BKN100 19/18 A2994 RMK AO2 SLP126
T01940178


USA.gov is the U.S. government's official web portal to all federal, state and local government web resources and services.